sensor_id;sensor_type;location;lat;lon;timestamp;P1;durP1;ratioP1;P2;durP2;ratioP2
74044;SDS011;62389;51.412;5.436;2024-01-25T00:01:36;27.27;;;5.40;;
74044;SDS011;62389;51.412;5.436;2024-01-25T00:04:02;21.75;;;5.28;;
74044;SDS011;62389;51.412;5.436;2024-01-25T00:06:28;25.58;;;6.20;;
74044;SDS011;62389;51.412;5.436;2024-01-25T00:08:53;26.42;;;4.72;;
74044;SDS011;62389;51.412;5.436;2024-01-25T00:11:19;19.00;;;4.68;;
74044;SDS011;62389;51.412;5.436;2024-01-25T00:13:44;18.30;;;5.45;;
74044;SDS011;62389;51.412;5.436;2024-01-25T00:16:09;27.10;;;5.03;;
74044;SDS011;62389;51.412;5.436;2024-01-25T00:18:35;19.52;;;4.40;;
74044;SDS011;62389;51.412;5.436;2024-01-25T00:21:00;17.77;;;4.43;;
74044;SDS011;62389;51.412;5.436;2024-01-25T00:23:26;26.10;;;6.35;;
74044;SDS011;62389;51.412;5.436;2024-01-25T00:25:51;31.92;;;6.32;;
74044;SDS011;62389;51.412;5.436;2024-01-25T00:28:16;28.75;;;5.45;;
74044;SDS011;62389;51.412;5.436;2024-01-25T00:30:42;21.00;;;5.10;;
74044;SDS011;62389;51.412;5.436;2024-01-25T00:33:07;24.08;;;5.55;;
74044;SDS011;62389;51.412;5.436;2024-01-25T00:35:32;22.88;;;5.03;;
74044;SDS011;62389;51.412;5.436;2024-01-25T00:37:58;24.17;;;6.03;;
74044;SDS011;62389;51.412;5.436;2024-01-25T00:40:25;29.48;;;5.28;;
74044;SDS011;62389;51.412;5.436;2024-01-25T00:42:50;24.42;;;5.78;;
74044;SDS011;62389;51.412;5.436;2024-01-25T00:45:20;23.33;;;4.95;;
74044;SDS011;62389;51.412;5.436;2024-01-25T00:47:46;24.67;;;5.55;;
74044;SDS011;62389;51.412;5.436;2024-01-25T00:50:12;23.90;;;5.30;;
74044;SDS011;62389;51.412;5.436;2024-01-25T00:52:38;18.42;;;5.38;;
74044;SDS011;62389;51.412;5.436;2024-01-25T00:55:03;28.00;;;5.47;;
74044;SDS011;62389;51.412;5.436;2024-01-25T00:57:29;19.35;;;5.03;;
74044;SDS011;62389;51.412;5.436;2024-01-25T00:59:55;22.10;;;4.03;;
74044;SDS011;62389;51.412;5.436;2024-01-25T01:02:21;27.58;;;7.28;;
74044;SDS011;62389;51.412;5.436;2024-01-25T01:04:47;23.05;;;4.55;;
74044;SDS011;62389;51.412;5.436;2024-01-25T01:07:13;27.15;;;4.72;;
74044;SDS011;62389;51.412;5.436;2024-01-25T01:09:39;28.33;;;4.68;;
74044;SDS011;62389;51.412;5.436;2024-01-25T01:12:04;23.30;;;4.68;;
74044;SDS011;62389;51.412;5.436;2024-01-25T01:14:31;22.50;;;4.60;;
74044;SDS011;62389;51.412;5.436;2024-01-25T01:16:57;23.63;;;4.93;;
74044;SDS011;62389;51.412;5.436;2024-01-25T01:19:22;20.33;;;5.18;;
74044;SDS011;62389;51.412;5.436;2024-01-25T01:21:47;26.42;;;4.32;;
74044;SDS011;62389;51.412;5.436;2024-01-25T01:24:13;24.05;;;5.57;;
74044;SDS011;62389;51.412;5.436;2024-01-25T01:26:38;26.80;;;5.63;;
74044;SDS011;62389;51.412;5.436;2024-01-25T01:29:04;19.52;;;5.00;;
74044;SDS011;62389;51.412;5.436;2024-01-25T01:31:29;23.67;;;5.88;;
74044;SDS011;62389;51.412;5.436;2024-01-25T01:33:55;21.83;;;5.10;;
74044;SDS011;62389;51.412;5.436;2024-01-25T01:36:20;26.40;;;5.60;;
74044;SDS011;62389;51.412;5.436;2024-01-25T01:38:46;23.40;;;5.60;;
74044;SDS011;62389;51.412;5.436;2024-01-25T01:41:12;30.85;;;5.32;;
74044;SDS011;62389;51.412;5.436;2024-01-25T01:43:38;17.70;;;4.28;;
74044;SDS011;62389;51.412;5.436;2024-01-25T01:46:18;26.15;;;5.38;;
74044;SDS011;62389;51.412;5.436;2024-01-25T01:48:52;30.73;;;4.75;;
74044;SDS011;62389;51.412;5.436;2024-01-25T01:51:17;23.85;;;5.10;;
74044;SDS011;62389;51.412;5.436;2024-01-25T01:53:42;32.80;;;5.32;;
74044;SDS011;62389;51.412;5.436;2024-01-25T01:56:09;29.45;;;4.72;;
74044;SDS011;62389;51.412;5.436;2024-01-25T01:58:34;22.92;;;5.55;;
74044;SDS011;62389;51.412;5.436;2024-01-25T02:01:00;27.25;;;5.65;;
74044;SDS011;62389;51.412;5.436;2024-01-25T02:03:27;31.42;;;6.32;;
74044;SDS011;62389;51.412;5.436;2024-01-25T02:05:52;26.42;;;6.40;;
74044;SDS011;62389;51.412;5.436;2024-01-25T02:08:19;37.10;;;6.43;;
74044;SDS011;62389;51.412;5.436;2024-01-25T02:10:44;20.95;;;4.60;;
74044;SDS011;62389;51.412;5.436;2024-01-25T02:13:09;30.77;;;5.05;;
74044;SDS011;62389;51.412;5.436;2024-01-25T02:15:35;24.92;;;6.63;;
74044;SDS011;62389;51.412;5.436;2024-01-25T02:18:00;24.73;;;4.40;;
74044;SDS011;62389;51.412;5.436;2024-01-25T02:20:26;27.92;;;5.18;;
74044;SDS011;62389;51.412;5.436;2024-01-25T02:22:51;21.30;;;4.70;;
74044;SDS011;62389;51.412;5.436;2024-01-25T02:25:16;19.20;;;4.57;;
74044;SDS011;62389;51.412;5.436;2024-01-25T02:27:42;21.90;;;4.80;;
74044;SDS011;62389;51.412;5.436;2024-01-25T02:30:07;34.40;;;5.90;;
74044;SDS011;62389;51.412;5.436;2024-01-25T02:32:33;24.40;;;4.22;;
74044;SDS011;62389;51.412;5.436;2024-01-25T02:34:59;20.50;;;4.28;;
74044;SDS011;62389;51.412;5.436;2024-01-25T02:37:25;28.67;;;5.25;;
74044;SDS011;62389;51.412;5.436;2024-01-25T02:39:50;23.42;;;5.68;;
74044;SDS011;62389;51.412;5.436;2024-01-25T02:42:16;19.42;;;4.78;;
74044;SDS011;62389;51.412;5.436;2024-01-25T02:44:42;23.88;;;4.50;;
74044;SDS011;62389;51.412;5.436;2024-01-25T02:47:08;23.27;;;5.82;;
74044;SDS011;62389;51.412;5.436;2024-01-25T02:49:33;26.55;;;5.55;;
74044;SDS011;62389;51.412;5.436;2024-01-25T02:51:59;29.00;;;4.72;;
74044;SDS011;62389;51.412;5.436;2024-01-25T02:54:24;27.55;;;5.28;;
74044;SDS011;62389;51.412;5.436;2024-01-25T02:56:49;16.90;;;4.75;;
74044;SDS011;62389;51.412;5.436;2024-01-25T02:59:15;19.90;;;4.40;;
74044;SDS011;62389;51.412;5.436;2024-01-25T03:01:40;27.13;;;5.28;;
74044;SDS011;62389;51.412;5.436;2024-01-25T03:04:10;28.60;;;5.32;;
74044;SDS011;62389;51.412;5.436;2024-01-25T03:06:35;20.20;;;4.50;;
74044;SDS011;62389;51.412;5.436;2024-01-25T03:09:01;24.25;;;4.47;;
74044;SDS011;62389;51.412;5.436;2024-01-25T03:11:29;34.83;;;5.00;;
74044;SDS011;62389;51.412;5.436;2024-01-25T03:13:55;19.52;;;4.03;;
74044;SDS011;62389;51.412;5.436;2024-01-25T03:16:20;21.77;;;5.47;;
74044;SDS011;62389;51.412;5.436;2024-01-25T03:18:46;25.75;;;4.40;;
74044;SDS011;62389;51.412;5.436;2024-01-25T03:21:11;27.45;;;4.70;;
74044;SDS011;62389;51.412;5.436;2024-01-25T03:23:38;26.40;;;5.10;;
74044;SDS011;62389;51.412;5.436;2024-01-25T03:28:29;24.63;;;5.67;;
74044;SDS011;62389;51.412;5.436;2024-01-25T03:30:54;16.70;;;4.18;;
74044;SDS011;62389;51.412;5.436;2024-01-25T03:33:19;19.77;;;3.85;;
74044;SDS011;62389;51.412;5.436;2024-01-25T03:35:45;21.20;;;5.30;;
74044;SDS011;62389;51.412;5.436;2024-01-25T03:38:10;17.17;;;4.20;;
74044;SDS011;62389;51.412;5.436;2024-01-25T03:40:38;24.05;;;4.22;;
74044;SDS011;62389;51.412;5.436;2024-01-25T03:43:04;29.45;;;5.93;;
74044;SDS011;62389;51.412;5.436;2024-01-25T03:45:29;22.60;;;4.90;;
74044;SDS011;62389;51.412;5.436;2024-01-25T03:47:55;18.75;;;4.50;;
74044;SDS011;62389;51.412;5.436;2024-01-25T03:50:20;23.65;;;5.15;;
74044;SDS011;62389;51.412;5.436;2024-01-25T03:52:45;23.42;;;4.35;;
74044;SDS011;62389;51.412;5.436;2024-01-25T03:55:11;18.52;;;5.25;;
74044;SDS011;62389;51.412;5.436;2024-01-25T03:57:36;27.52;;;5.32;;
74044;SDS011;62389;51.412;5.436;2024-01-25T04:00:05;20.55;;;6.28;;
74044;SDS011;62389;51.412;5.436;2024-01-25T04:02:30;17.75;;;4.22;;
74044;SDS011;62389;51.412;5.436;2024-01-25T04:04:56;21.00;;;4.28;;
74044;SDS011;62389;51.412;5.436;2024-01-25T04:07:21;18.25;;;4.50;;
74044;SDS011;62389;51.412;5.436;2024-01-25T04:09:46;24.20;;;4.63;;
74044;SDS011;62389;51.412;5.436;2024-01-25T04:12:12;22.10;;;3.88;;
74044;SDS011;62389;51.412;5.436;2024-01-25T04:14:37;26.08;;;5.20;;
74044;SDS011;62389;51.412;5.436;2024-01-25T04:17:02;22.30;;;3.70;;
74044;SDS011;62389;51.412;5.436;2024-01-25T04:19:28;23.10;;;4.30;;
74044;SDS011;62389;51.412;5.436;2024-01-25T04:21:53;18.95;;;4.40;;
74044;SDS011;62389;51.412;5.436;2024-01-25T04:24:19;16.48;;;4.43;;
74044;SDS011;62389;51.412;5.436;2024-01-25T04:26:44;20.58;;;3.25;;
74044;SDS011;62389;51.412;5.436;2024-01-25T04:29:09;17.60;;;4.07;;
74044;SDS011;62389;51.412;5.436;2024-01-25T04:31:35;14.93;;;3.90;;
74044;SDS011;62389;51.412;5.436;2024-01-25T04:34:07;14.60;;;2.75;;
74044;SDS011;62389;51.412;5.436;2024-01-25T04:36:33;21.85;;;4.95;;
74044;SDS011;62389;51.412;5.436;2024-01-25T04:38:58;18.05;;;4.25;;
74044;SDS011;62389;51.412;5.436;2024-01-25T04:41:23;26.73;;;4.22;;
74044;SDS011;62389;51.412;5.436;2024-01-25T04:43:49;19.23;;;4.65;;
74044;SDS011;62389;51.412;5.436;2024-01-25T04:46:14;17.02;;;4.55;;
74044;SDS011;62389;51.412;5.436;2024-01-25T04:48:39;21.08;;;4.80;;
74044;SDS011;62389;51.412;5.436;2024-01-25T04:51:05;20.25;;;4.40;;
74044;SDS011;62389;51.412;5.436;2024-01-25T04:53:30;20.25;;;3.75;;
74044;SDS011;62389;51.412;5.436;2024-01-25T04:55:56;20.20;;;4.25;;
74044;SDS011;62389;51.412;5.436;2024-01-25T04:58:21;22.27;;;5.63;;
74044;SDS011;62389;51.412;5.436;2024-01-25T05:00:47;17.65;;;4.10;;
74044;SDS011;62389;51.412;5.436;2024-01-25T05:03:13;21.05;;;5.47;;
74044;SDS011;62389;51.412;5.436;2024-01-25T05:05:38;25.20;;;4.47;;
74044;SDS011;62389;51.412;5.436;2024-01-25T05:08:03;16.98;;;4.15;;
74044;SDS011;62389;51.412;5.436;2024-01-25T05:10:29;16.83;;;3.63;;
74044;SDS011;62389;51.412;5.436;2024-01-25T05:12:54;18.98;;;4.57;;
74044;SDS011;62389;51.412;5.436;2024-01-25T05:15:20;17.20;;;5.32;;
74044;SDS011;62389;51.412;5.436;2024-01-25T05:17:45;14.02;;;4.47;;
74044;SDS011;62389;51.412;5.436;2024-01-25T05:20:10;17.85;;;4.25;;
74044;SDS011;62389;51.412;5.436;2024-01-25T05:25:06;19.67;;;4.57;;
74044;SDS011;62389;51.412;5.436;2024-01-25T05:27:33;11.65;;;4.65;;
74044;SDS011;62389;51.412;5.436;2024-01-25T05:29:58;19.05;;;5.75;;
74044;SDS011;62389;51.412;5.436;2024-01-25T05:32:23;20.38;;;4.65;;
74044;SDS011;62389;51.412;5.436;2024-01-25T05:34:49;21.00;;;4.68;;
74044;SDS011;62389;51.412;5.436;2024-01-25T05:37:14;23.48;;;5.60;;
74044;SDS011;62389;51.412;5.436;2024-01-25T05:39:39;18.10;;;4.70;;
74044;SDS011;62389;51.412;5.436;2024-01-25T05:42:05;23.27;;;5.32;;
74044;SDS011;62389;51.412;5.436;2024-01-25T05:44:30;18.90;;;4.78;;
74044;SDS011;62389;51.412;5.436;2024-01-25T05:46:56;21.75;;;4.63;;
74044;SDS011;62389;51.412;5.436;2024-01-25T05:49:21;14.68;;;4.50;;
74044;SDS011;62389;51.412;5.436;2024-01-25T05:51:47;17.98;;;5.00;;
74044;SDS011;62389;51.412;5.436;2024-01-25T05:54:12;22.25;;;5.07;;
74044;SDS011;62389;51.412;5.436;2024-01-25T05:56:37;17.33;;;5.68;;
74044;SDS011;62389;51.412;5.436;2024-01-25T05:59:03;24.77;;;4.80;;
74044;SDS011;62389;51.412;5.436;2024-01-25T06:01:28;24.60;;;5.32;;
74044;SDS011;62389;51.412;5.436;2024-01-25T06:03:54;14.55;;;4.30;;
74044;SDS011;62389;51.412;5.436;2024-01-25T06:06:19;18.45;;;4.97;;
74044;SDS011;62389;51.412;5.436;2024-01-25T06:08:45;24.42;;;5.50;;
74044;SDS011;62389;51.412;5.436;2024-01-25T06:11:10;26.85;;;6.28;;
74044;SDS011;62389;51.412;5.436;2024-01-25T06:13:36;23.45;;;5.20;;
74044;SDS011;62389;51.412;5.436;2024-01-25T06:16:01;15.38;;;4.45;;
74044;SDS011;62389;51.412;5.436;2024-01-25T06:18:27;22.63;;;5.70;;
74044;SDS011;62389;51.412;5.436;2024-01-25T06:20:52;15.23;;;4.40;;
74044;SDS011;62389;51.412;5.436;2024-01-25T06:23:18;18.73;;;4.60;;
74044;SDS011;62389;51.412;5.436;2024-01-25T06:25:43;19.35;;;4.35;;
74044;SDS011;62389;51.412;5.436;2024-01-25T06:28:08;12.48;;;4.10;;
74044;SDS011;62389;51.412;5.436;2024-01-25T06:30:34;15.20;;;4.47;;
74044;SDS011;62389;51.412;5.436;2024-01-25T06:32:59;16.80;;;4.82;;
74044;SDS011;62389;51.412;5.436;2024-01-25T06:35:24;14.20;;;4.13;;
74044;SDS011;62389;51.412;5.436;2024-01-25T06:37:50;13.48;;;4.38;;
74044;SDS011;62389;51.412;5.436;2024-01-25T06:40:16;12.15;;;3.67;;
74044;SDS011;62389;51.412;5.436;2024-01-25T06:42:41;18.23;;;3.83;;
74044;SDS011;62389;51.412;5.436;2024-01-25T06:45:07;16.70;;;4.40;;
74044;SDS011;62389;51.412;5.436;2024-01-25T06:47:34;15.02;;;3.67;;
74044;SDS011;62389;51.412;5.436;2024-01-25T06:49:59;13.77;;;4.68;;
74044;SDS011;62389;51.412;5.436;2024-01-25T06:52:25;13.13;;;4.47;;
74044;SDS011;62389;51.412;5.436;2024-01-25T06:54:50;17.80;;;4.75;;
74044;SDS011;62389;51.412;5.436;2024-01-25T06:57:15;13.07;;;4.35;;
74044;SDS011;62389;51.412;5.436;2024-01-25T06:59:41;15.75;;;4.60;;
74044;SDS011;62389;51.412;5.436;2024-01-25T07:02:07;15.13;;;4.05;;
74044;SDS011;62389;51.412;5.436;2024-01-25T07:04:32;17.40;;;4.03;;
74044;SDS011;62389;51.412;5.436;2024-01-25T07:06:58;13.45;;;3.75;;
74044;SDS011;62389;51.412;5.436;2024-01-25T07:09:24;12.43;;;4.18;;
74044;SDS011;62389;51.412;5.436;2024-01-25T07:11:50;22.10;;;5.90;;
74044;SDS011;62389;51.412;5.436;2024-01-25T07:14:15;19.05;;;4.15;;
74044;SDS011;62389;51.412;5.436;2024-01-25T07:16:41;10.02;;;5.00;;
74044;SDS011;62389;51.412;5.436;2024-01-25T07:19:06;13.13;;;4.70;;
74044;SDS011;62389;51.412;5.436;2024-01-25T07:21:31;13.35;;;3.80;;
74044;SDS011;62389;51.412;5.436;2024-01-25T07:23:59;11.20;;;3.28;;
74044;SDS011;62389;51.412;5.436;2024-01-25T07:26:29;9.55;;;3.00;;
74044;SDS011;62389;51.412;5.436;2024-01-25T07:28:55;12.57;;;4.10;;
74044;SDS011;62389;51.412;5.436;2024-01-25T07:31:24;14.68;;;3.50;;
74044;SDS011;62389;51.412;5.436;2024-01-25T07:33:50;8.77;;;4.22;;
74044;SDS011;62389;51.412;5.436;2024-01-25T07:36:16;9.15;;;3.80;;
74044;SDS011;62389;51.412;5.436;2024-01-25T07:38:43;9.15;;;3.97;;
74044;SDS011;62389;51.412;5.436;2024-01-25T07:41:09;16.77;;;4.32;;
74044;SDS011;62389;51.412;5.436;2024-01-25T07:43:34;22.27;;;4.50;;
74044;SDS011;62389;51.412;5.436;2024-01-25T07:45:59;15.15;;;4.13;;
74044;SDS011;62389;51.412;5.436;2024-01-25T07:48:25;15.60;;;5.45;;
74044;SDS011;62389;51.412;5.436;2024-01-25T07:50:50;19.65;;;5.07;;
74044;SDS011;62389;51.412;5.436;2024-01-25T07:53:15;19.88;;;6.38;;
74044;SDS011;62389;51.412;5.436;2024-01-25T07:55:41;21.10;;;5.55;;
74044;SDS011;62389;51.412;5.436;2024-01-25T07:58:07;24.73;;;6.43;;
74044;SDS011;62389;51.412;5.436;2024-01-25T08:00:32;25.17;;;7.93;;
74044;SDS011;62389;51.412;5.436;2024-01-25T08:02:57;17.75;;;7.25;;
74044;SDS011;62389;51.412;5.436;2024-01-25T08:05:23;28.08;;;8.13;;
74044;SDS011;62389;51.412;5.436;2024-01-25T08:07:48;20.85;;;8.52;;
74044;SDS011;62389;51.412;5.436;2024-01-25T08:10:14;24.30;;;6.82;;
74044;SDS011;62389;51.412;5.436;2024-01-25T08:12:41;17.15;;;6.30;;
74044;SDS011;62389;51.412;5.436;2024-01-25T08:15:09;19.27;;;7.18;;
74044;SDS011;62389;51.412;5.436;2024-01-25T08:17:37;17.85;;;6.50;;
74044;SDS011;62389;51.412;5.436;2024-01-25T08:20:03;28.60;;;7.80;;
74044;SDS011;62389;51.412;5.436;2024-01-25T08:22:31;24.63;;;8.75;;
74044;SDS011;62389;51.412;5.436;2024-01-25T08:24:56;22.98;;;8.00;;
74044;SDS011;62389;51.412;5.436;2024-01-25T08:27:22;37.67;;;9.00;;
74044;SDS011;62389;51.412;5.436;2024-01-25T08:29:47;26.25;;;9.07;;
74044;SDS011;62389;51.412;5.436;2024-01-25T08:32:12;27.15;;;9.23;;
74044;SDS011;62389;51.412;5.436;2024-01-25T08:34:38;26.08;;;8.57;;
74044;SDS011;62389;51.412;5.436;2024-01-25T08:37:03;31.48;;;10.25;;
74044;SDS011;62389;51.412;5.436;2024-01-25T08:39:28;26.00;;;8.23;;
74044;SDS011;62389;51.412;5.436;2024-01-25T08:41:54;31.38;;;9.45;;
74044;SDS011;62389;51.412;5.436;2024-01-25T08:44:20;33.90;;;9.57;;
74044;SDS011;62389;51.412;5.436;2024-01-25T08:46:45;43.63;;;9.23;;
74044;SDS011;62389;51.412;5.436;2024-01-25T08:49:11;34.35;;;10.18;;
74044;SDS011;62389;51.412;5.436;2024-01-25T08:51:37;28.85;;;9.35;;
74044;SDS011;62389;51.412;5.436;2024-01-25T08:54:03;32.03;;;9.65;;
74044;SDS011;62389;51.412;5.436;2024-01-25T08:56:29;32.55;;;9.48;;
74044;SDS011;62389;51.412;5.436;2024-01-25T08:58:54;26.35;;;9.10;;
74044;SDS011;62389;51.412;5.436;2024-01-25T09:01:20;27.10;;;10.10;;
74044;SDS011;62389;51.412;5.436;2024-01-25T09:03:45;35.92;;;9.43;;
74044;SDS011;62389;51.412;5.436;2024-01-25T09:06:12;30.88;;;10.05;;
74044;SDS011;62389;51.412;5.436;2024-01-25T09:08:37;26.52;;;10.38;;
74044;SDS011;62389;51.412;5.436;2024-01-25T09:11:03;27.63;;;9.38;;
74044;SDS011;62389;51.412;5.436;2024-01-25T09:13:28;30.60;;;9.32;;
74044;SDS011;62389;51.412;5.436;2024-01-25T09:15:54;39.97;;;9.63;;
74044;SDS011;62389;51.412;5.436;2024-01-25T09:18:20;31.85;;;9.10;;
74044;SDS011;62389;51.412;5.436;2024-01-25T09:20:46;30.88;;;11.05;;
74044;SDS011;62389;51.412;5.436;2024-01-25T09:23:13;28.45;;;10.82;;
74044;SDS011;62389;51.412;5.436;2024-01-25T09:25:41;25.23;;;9.35;;
74044;SDS011;62389;51.412;5.436;2024-01-25T09:28:07;29.30;;;9.05;;
74044;SDS011;62389;51.412;5.436;2024-01-25T09:30:32;29.50;;;8.63;;
74044;SDS011;62389;51.412;5.436;2024-01-25T09:32:57;32.92;;;9.45;;
74044;SDS011;62389;51.412;5.436;2024-01-25T09:35:23;28.55;;;8.75;;
74044;SDS011;62389;51.412;5.436;2024-01-25T09:37:48;29.25;;;9.68;;
74044;SDS011;62389;51.412;5.436;2024-01-25T09:40:17;24.20;;;9.70;;
74044;SDS011;62389;51.412;5.436;2024-01-25T09:42:45;27.15;;;8.52;;
74044;SDS011;62389;51.412;5.436;2024-01-25T09:45:13;27.67;;;9.60;;
74044;SDS011;62389;51.412;5.436;2024-01-25T09:47:42;28.63;;;9.68;;
74044;SDS011;62389;51.412;5.436;2024-01-25T09:50:08;23.98;;;8.93;;
74044;SDS011;62389;51.412;5.436;2024-01-25T09:52:33;26.08;;;9.32;;
74044;SDS011;62389;51.412;5.436;2024-01-25T09:55:00;27.45;;;10.38;;
74044;SDS011;62389;51.412;5.436;2024-01-25T09:57:27;30.15;;;10.95;;
74044;SDS011;62389;51.412;5.436;2024-01-25T09:59:55;37.63;;;12.27;;
74044;SDS011;62389;51.412;5.436;2024-01-25T10:02:20;38.40;;;11.60;;
74044;SDS011;62389;51.412;5.436;2024-01-25T10:04:49;38.72;;;12.05;;
74044;SDS011;62389;51.412;5.436;2024-01-25T10:07:16;39.30;;;12.68;;
74044;SDS011;62389;51.412;5.436;2024-01-25T10:09:42;32.83;;;12.88;;
74044;SDS011;62389;51.412;5.436;2024-01-25T10:12:07;36.22;;;12.70;;
74044;SDS011;62389;51.412;5.436;2024-01-25T10:14:33;40.10;;;14.10;;
74044;SDS011;62389;51.412;5.436;2024-01-25T10:16:59;33.10;;;13.32;;
74044;SDS011;62389;51.412;5.436;2024-01-25T10:19:25;36.47;;;12.60;;
74044;SDS011;62389;51.412;5.436;2024-01-25T10:21:51;38.95;;;13.15;;
74044;SDS011;62389;51.412;5.436;2024-01-25T10:24:16;37.63;;;13.68;;
74044;SDS011;62389;51.412;5.436;2024-01-25T10:26:42;35.53;;;14.45;;
74044;SDS011;62389;51.412;5.436;2024-01-25T10:29:08;39.40;;;11.65;;
74044;SDS011;62389;51.412;5.436;2024-01-25T10:31:36;34.05;;;13.48;;
74044;SDS011;62389;51.412;5.436;2024-01-25T10:34:05;33.38;;;14.43;;
74044;SDS011;62389;51.412;5.436;2024-01-25T10:36:30;33.60;;;12.32;;
74044;SDS011;62389;51.412;5.436;2024-01-25T10:38:56;35.13;;;12.60;;
74044;SDS011;62389;51.412;5.436;2024-01-25T10:41:23;38.72;;;11.43;;
74044;SDS011;62389;51.412;5.436;2024-01-25T10:46:15;31.38;;;10.68;;
74044;SDS011;62389;51.412;5.436;2024-01-25T10:48:41;28.80;;;11.52;;
74044;SDS011;62389;51.412;5.436;2024-01-25T10:51:07;31.48;;;10.93;;
74044;SDS011;62389;51.412;5.436;2024-01-25T10:53:34;36.10;;;11.55;;
74044;SDS011;62389;51.412;5.436;2024-01-25T10:56:02;33.78;;;11.77;;
74044;SDS011;62389;51.412;5.436;2024-01-25T10:58:31;30.48;;;11.00;;
74044;SDS011;62389;51.412;5.436;2024-01-25T11:00:58;29.75;;;10.68;;
74044;SDS011;62389;51.412;5.436;2024-01-25T11:03:28;29.27;;;9.80;;
74044;SDS011;62389;51.412;5.436;2024-01-25T11:06:04;32.00;;;9.75;;
74044;SDS011;62389;51.412;5.436;2024-01-25T11:08:32;33.65;;;9.93;;
74044;SDS011;62389;51.412;5.436;2024-01-25T11:10:57;34.58;;;10.52;;
74044;SDS011;62389;51.412;5.436;2024-01-25T11:13:23;29.00;;;11.75;;
74044;SDS011;62389;51.412;5.436;2024-01-25T11:15:51;28.92;;;10.15;;
74044;SDS011;62389;51.412;5.436;2024-01-25T11:18:19;24.67;;;10.10;;
74044;SDS011;62389;51.412;5.436;2024-01-25T11:20:46;30.95;;;11.80;;
74044;SDS011;62389;51.412;5.436;2024-01-25T11:23:14;33.72;;;11.05;;
74044;SDS011;62389;51.412;5.436;2024-01-25T11:25:43;35.63;;;12.52;;
74044;SDS011;62389;51.412;5.436;2024-01-25T11:28:10;33.92;;;11.35;;
74044;SDS011;62389;51.412;5.436;2024-01-25T11:30:36;37.22;;;11.60;;
74044;SDS011;62389;51.412;5.436;2024-01-25T11:33:04;36.85;;;10.98;;
74044;SDS011;62389;51.412;5.436;2024-01-25T11:35:30;29.42;;;10.80;;
74044;SDS011;62389;51.412;5.436;2024-01-25T11:37:56;31.02;;;11.23;;
74044;SDS011;62389;51.412;5.436;2024-01-25T11:40:22;32.47;;;11.45;;
74044;SDS011;62389;51.412;5.436;2024-01-25T11:42:49;28.05;;;10.43;;
74044;SDS011;62389;51.412;5.436;2024-01-25T11:45:15;25.15;;;10.23;;
74044;SDS011;62389;51.412;5.436;2024-01-25T11:47:41;25.33;;;9.27;;
74044;SDS011;62389;51.412;5.436;2024-01-25T11:50:09;34.75;;;10.52;;
74044;SDS011;62389;51.412;5.436;2024-01-25T11:52:35;27.73;;;9.38;;
74044;SDS011;62389;51.412;5.436;2024-01-25T11:55:05;29.52;;;10.75;;
74044;SDS011;62389;51.412;5.436;2024-01-25T11:57:32;31.88;;;9.48;;
74044;SDS011;62389;51.412;5.436;2024-01-25T12:00:01;26.02;;;9.00;;
74044;SDS011;62389;51.412;5.436;2024-01-25T12:02:27;24.27;;;9.13;;
74044;SDS011;62389;51.412;5.436;2024-01-25T12:04:52;29.83;;;8.73;;
74044;SDS011;62389;51.412;5.436;2024-01-25T12:09:56;28.15;;;9.52;;
74044;SDS011;62389;51.412;5.436;2024-01-25T12:12:26;23.23;;;8.43;;
74044;SDS011;62389;51.412;5.436;2024-01-25T12:14:56;30.17;;;10.27;;
74044;SDS011;62389;51.412;5.436;2024-01-25T12:17:28;27.30;;;9.90;;
74044;SDS011;62389;51.412;5.436;2024-01-25T12:19:54;28.05;;;9.23;;
74044;SDS011;62389;51.412;5.436;2024-01-25T12:22:21;31.90;;;8.60;;
74044;SDS011;62389;51.412;5.436;2024-01-25T12:24:47;28.15;;;9.55;;
74044;SDS011;62389;51.412;5.436;2024-01-25T12:27:14;32.30;;;9.10;;
74044;SDS011;62389;51.412;5.436;2024-01-25T12:29:40;30.17;;;9.50;;
74044;SDS011;62389;51.412;5.436;2024-01-25T12:32:06;32.35;;;9.60;;
74044;SDS011;62389;51.412;5.436;2024-01-25T12:34:31;26.40;;;8.27;;
74044;SDS011;62389;51.412;5.436;2024-01-25T12:36:56;24.15;;;8.63;;
74044;SDS011;62389;51.412;5.436;2024-01-25T12:39:22;27.17;;;9.60;;
74044;SDS011;62389;51.412;5.436;2024-01-25T12:41:47;21.17;;;8.38;;
74044;SDS011;62389;51.412;5.436;2024-01-25T12:44:13;24.48;;;7.95;;
74044;SDS011;62389;51.412;5.436;2024-01-25T12:46:38;29.45;;;9.77;;
74044;SDS011;62389;51.412;5.436;2024-01-25T12:49:03;28.02;;;8.02;;
74044;SDS011;62389;51.412;5.436;2024-01-25T12:51:29;28.02;;;9.45;;
74044;SDS011;62389;51.412;5.436;2024-01-25T12:53:54;20.52;;;8.85;;
74044;SDS011;62389;51.412;5.436;2024-01-25T12:56:20;31.85;;;9.27;;
74044;SDS011;62389;51.412;5.436;2024-01-25T12:58:45;26.70;;;9.52;;
74044;SDS011;62389;51.412;5.436;2024-01-25T13:01:11;27.52;;;9.27;;
74044;SDS011;62389;51.412;5.436;2024-01-25T13:03:36;29.75;;;9.50;;
74044;SDS011;62389;51.412;5.436;2024-01-25T13:06:02;30.73;;;10.65;;
74044;SDS011;62389;51.412;5.436;2024-01-25T13:08:28;27.63;;;10.15;;
74044;SDS011;62389;51.412;5.436;2024-01-25T13:10:53;27.52;;;10.55;;
74044;SDS011;62389;51.412;5.436;2024-01-25T13:13:19;26.90;;;9.70;;
74044;SDS011;62389;51.412;5.436;2024-01-25T13:15:45;36.22;;;10.20;;
74044;SDS011;62389;51.412;5.436;2024-01-25T13:18:11;31.65;;;10.40;;
74044;SDS011;62389;51.412;5.436;2024-01-25T13:20:36;33.83;;;10.90;;
74044;SDS011;62389;51.412;5.436;2024-01-25T13:23:01;33.63;;;11.60;;
74044;SDS011;62389;51.412;5.436;2024-01-25T13:25:27;34.53;;;9.95;;
74044;SDS011;62389;51.412;5.436;2024-01-25T13:27:52;33.10;;;10.27;;
74044;SDS011;62389;51.412;5.436;2024-01-25T13:30:18;25.30;;;10.35;;
74044;SDS011;62389;51.412;5.436;2024-01-25T13:32:43;32.38;;;10.65;;
74044;SDS011;62389;51.412;5.436;2024-01-25T13:35:08;30.83;;;10.40;;
74044;SDS011;62389;51.412;5.436;2024-01-25T13:37:34;30.58;;;10.57;;
74044;SDS011;62389;51.412;5.436;2024-01-25T13:39:59;28.77;;;11.45;;
74044;SDS011;62389;51.412;5.436;2024-01-25T13:42:25;37.20;;;10.88;;
74044;SDS011;62389;51.412;5.436;2024-01-25T13:44:50;32.40;;;11.23;;
74044;SDS011;62389;51.412;5.436;2024-01-25T13:47:15;30.05;;;11.73;;
74044;SDS011;62389;51.412;5.436;2024-01-25T13:49:41;34.65;;;11.55;;
74044;SDS011;62389;51.412;5.436;2024-01-25T13:52:06;29.92;;;11.05;;
74044;SDS011;62389;51.412;5.436;2024-01-25T13:54:31;32.95;;;11.40;;
74044;SDS011;62389;51.412;5.436;2024-01-25T13:56:58;34.90;;;10.35;;
74044;SDS011;62389;51.412;5.436;2024-01-25T13:59:23;35.00;;;11.27;;
74044;SDS011;62389;51.412;5.436;2024-01-25T14:01:50;29.65;;;11.45;;
74044;SDS011;62389;51.412;5.436;2024-01-25T14:04:16;35.30;;;11.32;;
74044;SDS011;62389;51.412;5.436;2024-01-25T14:06:42;32.90;;;10.65;;
74044;SDS011;62389;51.412;5.436;2024-01-25T14:09:07;32.03;;;10.50;;
74044;SDS011;62389;51.412;5.436;2024-01-25T14:11:32;40.88;;;12.63;;
74044;SDS011;62389;51.412;5.436;2024-01-25T14:13:58;34.38;;;10.73;;
74044;SDS011;62389;51.412;5.436;2024-01-25T14:16:23;34.35;;;11.40;;
74044;SDS011;62389;51.412;5.436;2024-01-25T14:18:48;31.52;;;10.77;;
74044;SDS011;62389;51.412;5.436;2024-01-25T14:21:14;27.33;;;10.57;;
74044;SDS011;62389;51.412;5.436;2024-01-25T14:23:39;32.50;;;10.65;;
74044;SDS011;62389;51.412;5.436;2024-01-25T14:26:04;38.35;;;11.35;;
74044;SDS011;62389;51.412;5.436;2024-01-25T14:28:30;36.95;;;11.30;;
74044;SDS011;62389;51.412;5.436;2024-01-25T14:30:55;39.67;;;11.60;;
74044;SDS011;62389;51.412;5.436;2024-01-25T14:33:21;30.00;;;10.68;;